createdAt,value
2022-09-15T00:00:45.785Z,10.73
2022-09-15T00:05:00.888Z,10.87
2022-09-15T00:09:14.843Z,10.85
2022-09-15T00:13:28.691Z,11.57
2022-09-15T00:17:42.952Z,11.63
2022-09-15T00:21:58.044Z,14.02
2022-09-15T00:26:14.228Z,15.27
2022-09-15T00:30:28.162Z,15.88
2022-09-15T00:34:41.878Z,16.10
2022-09-15T00:38:57.931Z,17.02
2022-09-15T00:43:12.332Z,16.58
2022-09-15T00:47:29.961Z,16.77
2022-09-15T00:51:56.744Z,15.88
2022-09-15T00:56:13.640Z,17.55
2022-09-15T01:00:29.424Z,17.50
2022-09-15T01:04:43.660Z,18.08
2022-09-15T01:09:04.012Z,17.48
2022-09-15T01:13:19.384Z,19.00
2022-09-15T01:17:46.974Z,18.20
2022-09-15T01:22:13.888Z,18.35
2022-09-15T01:26:46.706Z,17.65
2022-09-15T01:31:09.431Z,17.27
2022-09-15T01:35:31.986Z,15.93
2022-09-15T01:39:49.547Z,17.00
2022-09-15T01:44:07.943Z,17.87
2022-09-15T01:48:29.180Z,19.23
2022-09-15T01:52:45.934Z,17.45
2022-09-15T01:56:59.942Z,17.50
2022-09-15T02:01:18.678Z,18.50
2022-09-15T02:05:40.102Z,18.20
2022-09-15T02:10:01.477Z,17.23
2022-09-15T02:14:20.947Z,17.60
2022-09-15T02:18:45.264Z,17.38
2022-09-15T02:23:08.541Z,16.63
2022-09-15T02:27:25.241Z,17.80
2022-09-15T02:31:41.147Z,17.88
2022-09-15T02:35:55.733Z,18.58
2022-09-15T02:40:12.337Z,17.25
2022-09-15T02:44:26.171Z,17.60
2022-09-15T02:48:39.860Z,17.73
2022-09-15T02:52:54.071Z,17.27
2022-09-15T02:57:09.286Z,16.47
2022-09-15T03:01:31.890Z,17.27
2022-09-15T03:05:45.602Z,16.77
2022-09-15T03:09:59.734Z,16.83
2022-09-15T03:14:14.858Z,17.73
2022-09-15T03:18:28.650Z,17.90
2022-09-15T03:22:42.598Z,17.48
2022-09-15T03:26:56.338Z,17.70
2022-09-15T03:31:11.725Z,18.23
2022-09-15T03:35:25.517Z,18.15
2022-09-15T03:39:39.340Z,18.50
2022-09-15T03:43:53.166Z,18.33
2022-09-15T03:48:08.689Z,18.52
2022-09-15T03:52:22.501Z,18.93
2022-09-15T03:56:36.395Z,18.15
2022-09-15T04:00:50.093Z,18.88
2022-09-15T04:05:05.719Z,19.10
2022-09-15T04:09:20.442Z,18.83
2022-09-15T04:13:34.191Z,18.65
2022-09-15T04:17:48.010Z,19.95
2022-09-15T04:22:03.256Z,18.93
2022-09-15T04:26:22.974Z,17.15
2022-09-15T04:30:37.276Z,18.40
2022-09-15T04:34:51.099Z,18.60
2022-09-15T04:39:07.189Z,17.65
2022-09-15T04:43:20.862Z,19.75
2022-09-15T04:47:34.793Z,18.80
2022-09-15T04:51:48.515Z,18.17
2022-09-15T04:56:09.257Z,19.60
2022-09-15T05:00:27.128Z,19.17
2022-09-15T05:04:40.865Z,18.17
2022-09-15T05:08:56.942Z,20.27
2022-09-15T05:13:12.017Z,19.02
2022-09-15T05:17:26.863Z,19.37
2022-09-15T05:21:41.058Z,19.60
2022-09-15T05:25:58.441Z,18.48
2022-09-15T05:30:36.732Z,19.55
2022-09-15T05:34:47.783Z,17.23
2022-09-15T05:39:01.887Z,17.30
2022-09-15T05:43:15.757Z,16.60
2022-09-15T05:47:31.029Z,16.07
2022-09-15T05:51:45.076Z,14.95
2022-09-15T05:55:59.959Z,15.70
2022-09-15T06:00:14.915Z,15.53
2022-09-15T06:04:30.478Z,16.23
2022-09-15T06:08:48.347Z,17.23
2022-09-15T06:13:02.422Z,16.48
2022-09-15T06:17:16.118Z,16.43
2022-09-15T06:21:33.445Z,17.17
2022-09-15T06:25:47.121Z,16.80
2022-09-15T06:30:00.868Z,19.80
2022-09-15T06:34:14.625Z,16.85
2022-09-15T06:38:30.312Z,14.55
2022-09-15T06:42:43.986Z,14.73
2022-09-15T06:46:58.414Z,14.10
2022-09-15T06:51:14.093Z,13.27
2022-09-15T06:55:29.384Z,13.95
2022-09-15T06:59:43.785Z,13.13
2022-09-15T07:04:05.425Z,13.55
2022-09-15T07:08:20.687Z,12.32
2022-09-15T07:12:36.029Z,12.60
2022-09-15T07:16:50.371Z,12.10
2022-09-15T07:21:07.264Z,12.25
2022-09-15T07:25:20.960Z,10.50
2022-09-15T07:29:38.228Z,10.32
2022-09-15T07:33:52.074Z,11.13
2022-09-15T07:38:06.318Z,10.45
2022-09-15T07:42:19.994Z,11.07
2022-09-15T07:46:35.583Z,11.73
2022-09-15T07:50:49.289Z,12.20
2022-09-15T07:55:03.083Z,12.50
2022-09-15T07:59:16.801Z,11.75
2022-09-15T08:03:31.879Z,14.18
2022-09-15T08:07:45.537Z,13.60
2022-09-15T08:11:59.283Z,13.00
2022-09-15T08:16:16.191Z,12.70
2022-09-15T08:20:31.554Z,12.32
2022-09-15T08:24:45.241Z,13.00
2022-09-15T08:28:59.446Z,11.32
2022-09-15T08:33:13.411Z,11.05
2022-09-15T08:37:28.687Z,10.40
2022-09-15T08:41:45.991Z,10.90
2022-09-15T08:46:05.006Z,11.18
2022-09-15T08:50:27.462Z,10.00
2022-09-15T08:54:42.796Z,10.00
2022-09-15T08:58:56.895Z,9.35
2022-09-15T09:03:35.155Z,9.20
2022-09-15T09:08:08.464Z,10.27
2022-09-15T09:12:46.698Z,10.50
2022-09-15T09:17:16.341Z,10.10
2022-09-15T09:21:33.736Z,10.17
2022-09-15T09:25:50.906Z,10.80
2022-09-15T09:30:17.717Z,10.75
2022-09-15T09:34:39.620Z,11.77
2022-09-15T09:38:53.584Z,9.57
2022-09-15T09:43:07.557Z,9.07
2022-09-15T09:47:27.403Z,8.73
2022-09-15T09:51:51.880Z,9.20
2022-09-15T09:56:24.163Z,9.30
2022-09-15T10:00:40.064Z,7.78
2022-09-15T10:04:56.876Z,7.50
2022-09-15T10:09:16.611Z,6.18
2022-09-15T10:13:30.922Z,5.85
2022-09-15T10:17:46.538Z,6.10
2022-09-15T10:22:03.064Z,5.15
2022-09-15T10:26:22.235Z,5.18
2022-09-15T10:30:36.052Z,4.60
2022-09-15T10:34:50.320Z,5.27
2022-09-15T10:39:13.652Z,4.28
2022-09-15T10:43:43.204Z,5.03
2022-09-15T10:48:35.688Z,5.13
2022-09-15T10:53:06.054Z,5.43
2022-09-15T10:57:36.902Z,4.75
2022-09-15T11:02:23.932Z,4.87
2022-09-15T11:06:48.050Z,4.97
2022-09-15T11:11:08.999Z,4.88
2022-09-15T11:15:37.724Z,4.68
2022-09-15T11:20:19.863Z,4.50
2022-09-15T11:24:43.151Z,4.28
2022-09-15T11:29:02.377Z,3.15
2022-09-15T11:33:22.271Z,3.33
2022-09-15T11:37:44.482Z,3.42
2022-09-15T11:42:04.724Z,3.00
2022-09-15T11:46:24.551Z,2.70
2022-09-15T11:50:45.218Z,2.30
2022-09-15T11:55:04.242Z,2.30
2022-09-15T11:59:25.857Z,2.40
2022-09-15T12:03:44.780Z,2.20
2022-09-15T12:08:05.931Z,2.00
2022-09-15T12:12:22.687Z,2.00
2022-09-15T12:16:36.858Z,2.10
2022-09-15T12:20:57.525Z,1.90
2022-09-15T12:25:17.996Z,1.55
2022-09-15T12:29:41.899Z,1.50
2022-09-15T12:33:58.662Z,1.60
2022-09-15T12:38:15.209Z,1.50
2022-09-15T12:42:32.288Z,1.50
2022-09-15T12:46:53.005Z,1.30
2022-09-15T12:51:10.864Z,1.50
2022-09-15T12:55:27.249Z,1.50
2022-09-15T12:59:42.361Z,1.60
2022-09-15T13:04:26.950Z,1.80
2022-09-15T13:08:52.699Z,1.63
2022-09-15T13:13:31.216Z,1.60
2022-09-15T13:17:48.793Z,1.60
2022-09-15T13:22:13.280Z,1.65
2022-09-15T13:26:31.487Z,1.83
2022-09-15T13:30:58.143Z,1.70
2022-09-15T13:35:34.058Z,1.63
2022-09-15T13:40:02.776Z,1.75
2022-09-15T13:45:04.624Z,2.13
2022-09-15T13:49:45.669Z,1.88
2022-09-15T13:54:03.533Z,1.90
2022-09-15T14:02:58.672Z,2.33
2022-09-15T14:07:23.035Z,2.28
2022-09-15T14:11:42.324Z,2.38
2022-09-15T14:15:59.015Z,1.83
2022-09-15T14:20:24.155Z,2.10
2022-09-15T14:24:41.610Z,1.63
2022-09-15T14:28:58.764Z,1.80
2022-09-15T14:33:17.721Z,1.90
2022-09-15T14:37:32.624Z,1.80
2022-09-15T14:41:47.577Z,1.77
2022-09-15T14:46:12.716Z,3.03
2022-09-15T14:50:30.353Z,1.63
2022-09-15T14:54:46.733Z,1.90
2022-09-15T14:59:05.170Z,1.77
2022-09-15T15:03:28.527Z,1.70
2022-09-15T15:07:43.072Z,1.70
2022-09-15T15:12:01.600Z,1.80
2022-09-15T15:16:21.296Z,1.77
2022-09-15T15:20:36.433Z,2.10
2022-09-15T15:24:52.206Z,2.10
2022-09-15T15:29:09.297Z,1.98
2022-09-15T15:33:27.351Z,1.92
2022-09-15T15:37:42.743Z,1.70
2022-09-15T15:42:03.532Z,1.60
2022-09-15T15:46:47.449Z,1.70
2022-09-15T15:51:01.247Z,1.80
2022-09-15T15:55:18.071Z,1.60
2022-09-15T15:59:32.136Z,1.90
2022-09-15T16:03:45.816Z,2.00
2022-09-15T16:08:04.110Z,1.87
2022-09-15T16:12:19.255Z,1.90
2022-09-15T16:16:34.329Z,1.95
2022-09-15T16:20:48.166Z,2.13
2022-09-15T16:25:02.387Z,1.90
2022-09-15T16:29:17.500Z,1.80
2022-09-15T16:33:34.664Z,1.65
2022-09-15T16:37:51.639Z,1.90
2022-09-15T16:42:05.699Z,1.80
2022-09-15T16:46:21.167Z,1.90
2022-09-15T16:50:35.111Z,1.67
2022-09-15T16:54:48.765Z,1.95
2022-09-15T16:59:02.546Z,1.88
2022-09-15T17:03:18.831Z,1.75
2022-09-15T17:07:32.484Z,1.30
2022-09-15T17:11:46.138Z,1.45
2022-09-15T17:16:00.382Z,1.60
2022-09-15T17:20:16.278Z,1.50
2022-09-15T17:24:30.351Z,1.50
2022-09-15T17:28:44.137Z,1.63
2022-09-15T17:33:05.255Z,1.67
2022-09-15T17:37:20.293Z,2.00
2022-09-15T17:41:34.767Z,1.63
2022-09-15T17:45:49.158Z,1.70
2022-09-15T17:50:02.823Z,1.63
2022-09-15T17:54:17.915Z,1.70
2022-09-15T17:58:31.929Z,2.05
2022-09-15T18:02:50.148Z,2.23
2022-09-15T18:07:03.811Z,1.75
2022-09-15T18:11:18.864Z,1.65
2022-09-15T18:15:34.417Z,2.10
2022-09-15T18:19:48.364Z,2.20
2022-09-15T18:24:02.260Z,1.80
2022-09-15T18:28:18.533Z,2.08
2022-09-15T18:32:33.104Z,2.10
2022-09-15T18:36:47.019Z,1.90
2022-09-15T18:41:01.447Z,2.05
2022-09-15T18:45:19.044Z,1.80
2022-09-15T18:49:32.723Z,2.05
2022-09-15T18:53:48.789Z,1.90
2022-09-15T18:58:04.563Z,1.80
2022-09-15T19:02:19.641Z,1.83
2022-09-15T19:06:33.442Z,1.70
2022-09-15T19:10:47.925Z,1.60
2022-09-15T19:15:01.550Z,1.80
2022-09-15T19:19:16.719Z,1.70
2022-09-15T19:23:30.358Z,1.77
2022-09-15T19:27:44.143Z,1.87
2022-09-15T19:31:57.892Z,1.70
2022-09-15T19:36:29.145Z,1.77
2022-09-15T19:40:43.059Z,1.80
2022-09-15T19:44:56.766Z,1.80
2022-09-15T19:49:10.821Z,1.52
2022-09-15T19:53:25.852Z,1.60
2022-09-15T19:57:40.490Z,1.90
2022-09-15T20:01:54.131Z,1.70
2022-09-15T20:06:09.599Z,1.65
2022-09-15T20:10:24.599Z,1.73
2022-09-15T20:14:38.583Z,1.67
2022-09-15T20:18:54.182Z,1.83
2022-09-15T20:23:07.893Z,1.63
2022-09-15T20:27:22.983Z,1.75
2022-09-15T20:31:36.643Z,1.50
2022-09-15T20:35:50.304Z,1.40
2022-09-15T20:40:04.620Z,1.20
2022-09-15T20:44:19.897Z,1.20
2022-09-15T20:48:35.386Z,1.50
2022-09-15T20:52:49.003Z,1.30
2022-09-15T20:57:02.654Z,1.27
2022-09-15T21:01:19.527Z,1.40
2022-09-15T21:05:33.308Z,1.20
2022-09-15T21:09:47.035Z,1.65
2022-09-15T21:14:00.681Z,1.33
2022-09-15T21:18:15.935Z,1.48
2022-09-15T21:22:29.780Z,1.60
2022-09-15T21:26:57.564Z,1.63
2022-09-15T21:31:13.384Z,1.52
2022-09-15T21:35:28.390Z,1.83
2022-09-15T21:39:42.076Z,1.42
2022-09-15T21:43:58.033Z,1.80
2022-09-15T21:48:11.636Z,1.50
2022-09-15T21:52:26.687Z,1.65
2022-09-15T21:56:40.381Z,1.52
2022-09-15T22:00:54.188Z,1.70
2022-09-15T22:05:08.305Z,1.50
2022-09-15T22:09:23.391Z,1.77
2022-09-15T22:13:40.124Z,1.55
2022-09-15T22:17:54.078Z,2.10
2022-09-15T22:22:08.271Z,2.08
2022-09-15T22:26:25.360Z,1.88
2022-09-15T22:30:39.426Z,2.47
2022-09-15T22:34:53.284Z,1.80
2022-09-15T22:39:07.103Z,1.70
2022-09-15T22:43:22.251Z,1.65
2022-09-15T22:47:35.921Z,1.70
2022-09-15T22:51:49.646Z,1.90
2022-09-15T22:56:08.326Z,1.90
2022-09-15T23:00:23.618Z,1.90
2022-09-15T23:04:37.303Z,1.60
2022-09-15T23:08:52.594Z,1.67
2022-09-15T23:13:06.276Z,1.87
2022-09-15T23:17:21.342Z,1.77
2022-09-15T23:21:35.067Z,1.75
2022-09-15T23:25:48.769Z,1.50
2022-09-15T23:30:02.461Z,1.70
2022-09-15T23:34:17.581Z,1.77
2022-09-15T23:38:35.549Z,1.52
2022-09-15T23:42:49.496Z,1.50
2022-09-15T23:47:03.216Z,1.60
2022-09-15T23:51:18.241Z,1.85
2022-09-15T23:55:32.067Z,1.83
2022-09-15T23:59:45.688Z,1.65
